This is the latest recevied weather packets stored in our database for station/object DH4SBM. If no packets are shown the sender has not sent any weather packets the latest 10 day(s).
| Time | Temp. | Humidity | Pressure | Rain* | Wind** | Luminosity | Snow |
|---|---|---|---|---|---|---|---|
| 1777711545 | 20° C | 44% | 1024.3 hPa | 0 mm | - | 628 W/m² | - |
| 1777710945 | 19.44° C | 46% | 1024.3 hPa | 0 mm | - | 656 W/m² | - |
| 1777710344 | 18.89° C | 46% | 1024.5 hPa | 0 mm | - | 624 W/m² | - |
| 1777709744 | 18.33° C | 48% | 1024.5 hPa | 0 mm | - | 652 W/m² | - |
| 1777709143 | 18.33° C | 47% | 1024.5 hPa | 0 mm | - | 376 W/m² | - |
| 1777708544 | 18.33° C | 49% | 1024.5 hPa | 0 mm | - | 524 W/m² | - |
| 1777707944 | 17.78° C | 50% | 1024.6 hPa | 0 mm | - | 612 W/m² | - |
| 1777707344 | 17.78° C | 51% | 1024.5 hPa | 0 mm | - | 577 W/m² | - |
| 1777706744 | 16.67° C | 52% | 1024.5 hPa | 0 mm | - | 540 W/m² | - |
| 1777706143 | 16.11° C | 54% | 1024.4 hPa | 0 mm | - | 424 W/m² | - |
| 1777705544 | 15.56° C | 55% | 1024.4 hPa | 0 mm | - | 480 W/m² | - |
| 1777704944 | 15° C | 56% | 1024.6 hPa | 0 mm | - | 455 W/m² | - |
| 1777704344 | 13.33° C | 60% | 1024.4 hPa | 0 mm | - | 411 W/m² | - |
| 1777703737 | 12.78° C | 65% | 1024.5 hPa | 0 mm | - | 394 W/m² | - |
| 1777703137 | 12.22° C | 68% | 1024.5 hPa | 0 mm | - | 262 W/m² | - |
| 1777702537 | 11.67° C | 69% | 1024.5 hPa | 0 mm | - | 37 W/m² | - |
| 1777701937 | 11.11° C | 69% | 1024.5 hPa | 0 mm | - | 309 W/m² | - |
| 1777701337 | 10.56° C | 70% | 1024.5 hPa | 0 mm | - | 279 W/m² | - |
| 1777700737 | 10.56° C | 70% | 1024.3 hPa | 0 mm | - | 255 W/m² | - |
| 1777700137 | 10.56° C | 69% | 1024.4 hPa | 0 mm | - | 223 W/m² | - |
| 1777699537 | 10.56° C | 68% | 1024.5 hPa | 0 mm | - | 195 W/m² | - |
| 1777698937 | 10.56° C | 68% | 1024.5 hPa | 0 mm | - | 171 W/m² | - |
| 1777698337 | 10° C | 69% | 1024.5 hPa | 0 mm | - | 142 W/m² | - |
| 1777697737 | 8.89° C | 73% | 1024.6 hPa | 0 mm | - | 116 W/m² | - |
| 1777697137 | 7.78° C | 75% | 1024.6 hPa | 0 mm | - | 93 W/m² | - |
* Rain latest hour (hover to see other rain measurements)
** Current wind speed in m/s (hover to see current wind gust speed)